Ceuta, Spain
Current Conditions -  °F | °C
As of 1:50 AM on Tuesday 21 Oct 2014 (Local Time) from LXGB Reporting Station
Clear Clear  
Wind Chill: 19°   Ceiling: Unl
Heat Index: 19°   Visibility: 4mi
Dew Point: 17°   Wind: 2mph
Humidity: 88%   Direction: 50°NE
Pressure: 30.15"   Gusts: NA
Location:  35.89°N, 5.32°W
Report Text: LXGB 202350Z AUTO 05002KT 6000 // NCD 19/17 Q1021
Loading
Personal Weather Stations






























Interactive Weather Map
Tropical Storm Tracking
New forecast layout! Learn more

10-Day Weather Forecast

Advertisements
Track Severe Weather on mobile